createdAt,value
2018-04-16T00:00:39.079Z,94523.36
2018-04-16T00:03:07.769Z,94521.81
2018-04-16T00:05:36.606Z,94526.25
2018-04-16T00:08:04.985Z,94531.02
2018-04-16T00:10:33.371Z,94525.03
2018-04-16T00:13:01.775Z,94529.44
2018-04-16T00:15:30.154Z,94530.45
2018-04-16T00:17:58.599Z,94533.06
2018-04-16T00:20:26.964Z,94528.84
2018-04-16T00:22:55.392Z,94531.24
2018-04-16T00:25:23.754Z,94528.92
2018-04-16T00:27:52.132Z,94525.92
2018-04-16T00:30:20.556Z,94518.88
2018-04-16T00:32:54.604Z,94524.99
2018-04-16T00:35:28.561Z,94527.84
2018-04-16T00:38:02.584Z,94530.33
2018-04-16T00:40:36.521Z,94533.61
2018-04-16T00:43:10.461Z,94535.59
2018-04-16T00:45:44.507Z,94541.16
2018-04-16T00:48:18.517Z,94537.00
2018-04-16T00:50:52.605Z,94540.30
2018-04-16T00:53:26.471Z,94527.72
2018-04-16T00:56:00.517Z,94519.86
2018-04-16T01:01:36.722Z,94528.78
2018-04-16T01:04:10.759Z,94532.44
2018-04-16T01:06:44.712Z,94526.92
2018-04-16T01:09:18.749Z,94526.69
2018-04-16T01:11:52.906Z,94521.02
2018-04-16T01:14:27.006Z,94522.70
2018-04-16T01:17:00.927Z,94515.89
2018-04-16T01:22:40.542Z,94520.66
2018-04-16T01:25:14.458Z,94517.78
2018-04-16T01:27:48.555Z,94514.90
2018-04-16T01:30:22.683Z,94526.58
2018-04-16T01:32:56.750Z,94518.03
2018-04-16T01:38:35.152Z,94520.55
2018-04-16T01:41:09.214Z,94525.64
2018-04-16T01:43:43.307Z,94533.05
2018-04-16T01:46:17.375Z,94527.16
2018-04-16T01:51:53.813Z,94531.11
2018-04-16T01:57:37.422Z,94526.91
2018-04-16T02:00:11.379Z,94534.62
2018-04-16T02:02:45.524Z,94529.55
2018-04-16T02:08:22.000Z,94538.63
2018-04-16T02:10:56.204Z,94539.41
2018-04-16T02:13:30.139Z,94538.97
2018-04-16T02:16:04.184Z,94540.92
2018-04-16T02:18:38.120Z,94528.17
2018-04-16T02:21:12.043Z,94535.41
2018-04-16T02:23:46.034Z,94535.55
2018-04-16T02:26:19.959Z,94529.70
2018-04-16T02:28:53.898Z,94526.13
2018-04-16T02:31:28.144Z,94529.63
2018-04-16T02:34:02.180Z,94533.75
2018-04-16T02:36:36.251Z,94531.25
2018-04-16T02:39:10.291Z,94532.56
2018-04-16T02:41:44.244Z,94531.25
2018-04-16T02:44:18.345Z,94539.17
2018-04-16T02:46:52.216Z,94531.52
2018-04-16T02:49:26.331Z,94542.91
2018-04-16T02:52:00.355Z,94545.75
2018-04-16T02:54:34.369Z,94552.77
2018-04-16T02:57:08.446Z,94548.77
2018-04-16T02:59:42.548Z,94548.45
2018-04-16T03:02:16.617Z,94546.56
2018-04-16T03:04:50.666Z,94546.03
2018-04-16T03:07:24.755Z,94551.09
2018-04-16T03:09:59.030Z,94545.37
2018-04-16T03:12:33.126Z,94550.28
2018-04-16T03:15:07.182Z,94548.00
2018-04-16T03:17:41.269Z,94550.09
2018-04-16T03:20:15.186Z,94550.44
2018-04-16T03:22:49.150Z,94544.25
2018-04-16T03:25:23.248Z,94548.66
2018-04-16T03:27:57.233Z,94551.94
2018-04-16T03:30:31.158Z,94548.72
2018-04-16T03:33:05.131Z,94545.20
2018-04-16T03:35:39.315Z,94558.22
2018-04-16T03:38:13.291Z,94556.36
2018-04-16T03:40:47.241Z,94555.55
2018-04-16T03:43:21.357Z,94556.04
2018-04-16T03:45:55.398Z,94557.98
2018-04-16T03:48:29.887Z,94560.62
2018-04-16T03:54:12.675Z,94571.62
2018-04-16T03:56:41.048Z,94572.19
2018-04-16T03:59:09.545Z,94572.53
2018-04-16T04:01:37.965Z,94578.06
2018-04-16T04:04:06.347Z,94582.67
2018-04-16T04:06:34.735Z,94587.12
2018-04-16T04:09:03.119Z,94587.64
2018-04-16T04:11:31.563Z,94581.52
2018-04-16T04:13:59.941Z,94586.52
2018-04-16T04:16:28.322Z,94590.47
2018-04-16T04:18:56.799Z,94587.64
2018-04-16T04:21:25.739Z,94585.58
2018-04-16T04:24:05.788Z,94588.41
2018-04-16T04:26:45.847Z,94587.02
2018-04-16T04:29:26.015Z,94591.45
2018-04-16T04:31:54.386Z,94590.05
2018-04-16T04:34:22.871Z,94599.67
2018-04-16T04:36:51.249Z,94598.38
2018-04-16T04:39:19.667Z,94596.17
2018-04-16T04:41:48.028Z,94596.53
2018-04-16T04:44:16.409Z,94600.97
2018-04-16T04:46:44.903Z,94603.16
2018-04-16T04:49:13.320Z,94608.75
2018-04-16T04:51:41.686Z,94606.41
2018-04-16T04:54:10.060Z,94615.49
2018-04-16T04:56:38.439Z,94620.10
2018-04-16T04:59:06.900Z,94619.34
2018-04-16T05:01:35.366Z,94620.27
2018-04-16T05:04:03.792Z,94620.31
2018-04-16T05:06:32.368Z,94618.47
2018-04-16T05:09:00.734Z,94621.45
2018-04-16T05:11:29.156Z,94625.25
2018-04-16T05:13:57.568Z,94627.37
2018-04-16T05:16:26.215Z,94632.80
2018-04-16T05:18:54.742Z,94639.73
2018-04-16T05:21:23.176Z,94638.06
2018-04-16T05:23:51.605Z,94639.09
2018-04-16T05:26:19.995Z,94641.63
2018-04-16T05:28:48.452Z,94646.34
2018-04-16T05:31:16.915Z,94646.71
2018-04-16T05:33:45.323Z,94643.74
2018-04-16T05:36:13.705Z,94649.75
2018-04-16T05:38:42.215Z,94649.70
2018-04-16T05:41:10.656Z,94653.86
2018-04-16T05:43:39.059Z,94652.51
2018-04-16T05:46:07.507Z,94656.74
2018-04-16T05:48:35.936Z,94656.77
2018-04-16T05:51:04.504Z,94656.05
2018-04-16T05:53:32.909Z,94658.92
2018-04-16T05:56:01.385Z,94666.07
2018-04-16T05:58:29.828Z,94669.06
2018-04-16T06:00:58.222Z,94669.98
2018-04-16T06:03:26.678Z,94675.72
2018-04-16T06:05:55.095Z,94672.12
2018-04-16T06:08:23.532Z,94677.52
2018-04-16T06:10:52.046Z,94683.22
2018-04-16T06:13:20.460Z,94685.31
2018-04-16T06:15:48.920Z,94688.62
2018-04-16T06:18:17.363Z,94685.42
2018-04-16T06:20:45.787Z,94690.34
2018-04-16T06:23:14.185Z,94691.77
2018-04-16T06:25:42.616Z,94696.09
2018-04-16T06:28:11.092Z,94693.16
2018-04-16T06:30:39.491Z,94699.97
2018-04-16T06:33:07.968Z,94704.31
2018-04-16T06:35:36.352Z,94710.77
2018-04-16T06:38:04.772Z,94705.58
2018-04-16T06:40:33.176Z,94705.21
2018-04-16T06:43:01.571Z,94705.83
2018-04-16T06:45:30.030Z,94711.84
2018-04-16T06:47:58.426Z,94719.97
2018-04-16T06:50:26.889Z,94716.82
2018-04-16T06:52:55.271Z,94717.09
2018-04-16T06:55:23.962Z,94714.23
2018-04-16T06:57:52.339Z,94712.02
2018-04-16T07:00:20.769Z,94714.56
2018-04-16T07:02:49.228Z,94720.34
2018-04-16T07:05:17.619Z,94723.42
2018-04-16T07:07:46.049Z,94719.34
2018-04-16T07:10:14.536Z,94726.03
2018-04-16T07:12:42.904Z,94722.14
2018-04-16T07:15:11.403Z,94729.80
2018-04-16T07:17:39.799Z,94734.19
2018-04-16T07:20:08.261Z,94727.44
2018-04-16T07:22:36.714Z,94729.98
2018-04-16T07:25:05.120Z,94731.95
2018-04-16T07:27:33.521Z,94731.72
2018-04-16T07:30:01.911Z,94730.89
2018-04-16T07:32:30.319Z,94731.98
2018-04-16T07:34:58.721Z,94740.11
2018-04-16T07:37:27.216Z,94740.22
2018-04-16T07:39:55.662Z,94747.67
2018-04-16T07:42:24.067Z,94748.52
2018-04-16T07:44:53.729Z,94743.63
2018-04-16T07:47:22.423Z,94744.20
2018-04-16T07:49:50.823Z,94750.63
2018-04-16T07:54:49.802Z,94751.67
2018-04-16T07:57:18.401Z,94747.26
2018-04-16T07:59:46.784Z,94752.84
2018-04-16T08:02:15.183Z,94752.30
2018-04-16T08:04:43.670Z,94753.31
2018-04-16T08:07:12.063Z,94752.25
2018-04-16T08:09:40.528Z,94753.62
2018-04-16T08:12:08.943Z,94754.30
2018-04-16T08:14:37.340Z,94760.73
2018-04-16T08:17:05.743Z,94762.48
2018-04-16T08:19:34.137Z,94764.66
2018-04-16T08:22:02.558Z,94756.08
2018-04-16T08:24:30.974Z,94758.33
2018-04-16T08:26:59.497Z,94762.39
2018-04-16T08:29:27.909Z,94764.92
2018-04-16T08:31:56.493Z,94765.28
2018-04-16T08:34:31.037Z,94768.87
2018-04-16T08:36:59.759Z,94765.98
2018-04-16T08:39:28.244Z,94767.73
2018-04-16T08:41:56.770Z,94765.25
2018-04-16T08:44:25.182Z,94762.53
2018-04-16T08:46:53.993Z,94764.23
2018-04-16T08:49:22.393Z,94763.63
2018-04-16T08:51:50.823Z,94765.22
2018-04-16T08:54:19.249Z,94767.45
2018-04-16T08:56:47.660Z,94769.06
2018-04-16T08:59:16.076Z,94763.06
2018-04-16T09:01:44.587Z,94760.08
2018-04-16T09:04:16.001Z,94762.88
2018-04-16T09:06:44.601Z,94765.81
2018-04-16T09:09:13.014Z,94768.61
2018-04-16T09:11:41.427Z,94768.45
2018-04-16T09:14:09.799Z,94762.67
2018-04-16T09:16:38.201Z,94767.28
2018-04-16T09:19:06.583Z,94760.78
2018-04-16T09:21:34.999Z,94769.26
2018-04-16T09:24:03.446Z,94770.95
2018-04-16T09:26:31.842Z,94776.77
2018-04-16T09:29:00.215Z,94780.78
2018-04-16T09:31:28.585Z,94777.98
2018-04-16T09:33:57.053Z,94783.91
2018-04-16T09:36:25.656Z,94776.38
2018-04-16T09:38:54.045Z,94777.66
2018-04-16T09:41:22.423Z,94773.63
2018-04-16T09:43:51.307Z,94773.81
2018-04-16T09:46:19.941Z,94771.94
2018-04-16T09:48:48.488Z,94776.96
2018-04-16T09:51:16.846Z,94775.02
2018-04-16T09:53:45.481Z,94774.99
2018-04-16T09:56:13.873Z,94778.44
2018-04-16T09:58:42.267Z,94779.20
2018-04-16T10:01:16.235Z,94776.14
2018-04-16T10:03:44.671Z,94783.58
2018-04-16T10:06:13.261Z,94783.30
2018-04-16T10:08:41.655Z,94783.73
2018-04-16T10:11:10.100Z,94787.84
2018-04-16T10:13:38.887Z,94785.19
2018-04-16T10:16:07.593Z,94785.46
2018-04-16T10:18:36.045Z,94787.84
2018-04-16T10:21:04.462Z,94789.05
2018-04-16T10:23:32.892Z,94791.56
2018-04-16T10:26:01.265Z,94795.11
2018-04-16T10:28:29.748Z,94789.02
2018-04-16T10:30:58.187Z,94779.48
2018-04-16T10:33:26.603Z,94786.64
2018-04-16T10:35:54.979Z,94788.83
2018-04-16T10:38:23.395Z,94786.35
2018-04-16T10:40:52.031Z,94786.41
2018-04-16T10:43:20.451Z,94793.09
2018-04-16T10:45:48.907Z,94798.47
2018-04-16T10:48:17.327Z,94798.80
2018-04-16T10:50:45.701Z,94802.98
2018-04-16T10:53:14.099Z,94804.14
2018-04-16T10:55:42.498Z,94805.17
2018-04-16T10:58:10.959Z,94801.27
2018-04-16T11:00:39.341Z,94808.60
2018-04-16T11:03:07.732Z,94807.34
2018-04-16T11:05:36.166Z,94805.66
2018-04-16T11:08:04.543Z,94805.64
2018-04-16T11:10:33.000Z,94807.64
2018-04-16T11:13:01.429Z,94803.86
2018-04-16T11:15:29.857Z,94802.13
2018-04-16T11:17:58.381Z,94803.06
2018-04-16T11:20:26.787Z,94805.03
2018-04-16T11:22:55.174Z,94803.69
2018-04-16T11:25:23.595Z,94804.27
2018-04-16T11:27:52.005Z,94804.83
2018-04-16T11:30:20.701Z,94810.92
2018-04-16T11:32:49.558Z,94807.58
2018-04-16T11:35:17.972Z,94812.41
2018-04-16T11:37:46.383Z,94822.52
2018-04-16T11:40:14.802Z,94821.86
2018-04-16T11:42:43.220Z,94833.59
2018-04-16T11:45:11.647Z,94835.83
2018-04-16T11:47:40.024Z,94829.96
2018-04-16T11:50:08.413Z,94827.27
2018-04-16T11:52:37.668Z,94831.66
2018-04-16T11:55:06.081Z,94830.16
2018-04-16T11:57:34.527Z,94834.65
2018-04-16T12:00:02.882Z,94832.82
2018-04-16T12:02:31.519Z,94835.70
2018-04-16T12:04:59.899Z,94838.31
2018-04-16T12:07:28.302Z,94846.29
2018-04-16T12:09:56.710Z,94843.64
2018-04-16T12:12:25.110Z,94840.53
2018-04-16T12:14:53.519Z,94842.38
2018-04-16T12:17:21.898Z,94848.20
2018-04-16T12:19:50.807Z,94846.05
2018-04-16T12:22:19.849Z,94848.53
2018-04-16T12:24:48.257Z,94854.95
2018-04-16T12:27:16.654Z,94863.41
2018-04-16T12:29:45.131Z,94874.05
2018-04-16T12:32:13.588Z,94874.27
2018-04-16T12:34:41.972Z,94880.55
2018-04-16T12:37:10.371Z,94886.55
2018-04-16T12:39:38.769Z,94886.40
2018-04-16T12:42:07.977Z,94889.67
2018-04-16T12:44:36.411Z,94889.54
2018-04-16T12:47:04.823Z,94893.50
2018-04-16T12:49:33.257Z,94894.17
2018-04-16T12:52:01.683Z,94894.14
2018-04-16T12:54:30.197Z,94891.42
2018-04-16T12:56:58.618Z,94899.43
2018-04-16T12:59:27.027Z,94888.67
2018-04-16T13:01:55.519Z,94897.32
2018-04-16T13:04:23.958Z,94890.09
2018-04-16T13:06:52.321Z,94895.01
2018-04-16T13:09:21.249Z,94891.67
2018-04-16T13:11:49.724Z,94882.02
2018-04-16T13:14:18.237Z,94879.47
2018-04-16T13:16:46.652Z,94879.66
2018-04-16T13:19:15.126Z,94882.36
2018-04-16T13:21:45.492Z,94887.69
2018-04-16T13:24:13.896Z,94885.99
2018-04-16T13:26:42.463Z,94888.38
2018-04-16T13:29:10.863Z,94891.47
2018-04-16T13:31:39.385Z,94894.14
2018-04-16T13:34:07.853Z,94894.04
2018-04-16T13:36:36.298Z,94893.80
2018-04-16T13:39:04.770Z,94891.48
2018-04-16T13:41:33.188Z,94892.55
2018-04-16T13:44:01.595Z,94895.05
2018-04-16T13:46:30.179Z,94893.92
2018-04-16T13:48:58.640Z,94896.38
2018-04-16T13:51:27.043Z,94897.80
2018-04-16T13:53:55.490Z,94896.70
2018-04-16T13:56:23.959Z,94898.66
2018-04-16T13:58:52.737Z,94898.48
2018-04-16T14:01:21.458Z,94898.55
2018-04-16T14:03:49.859Z,94901.41
2018-04-16T14:06:18.370Z,94902.37
2018-04-16T14:08:46.774Z,94905.70
2018-04-16T14:11:15.176Z,94907.20
2018-04-16T14:13:43.731Z,94910.09
2018-04-16T14:16:12.151Z,94902.16
2018-04-16T14:18:40.526Z,94912.16
2018-04-16T14:21:09.719Z,94912.19
2018-04-16T14:23:38.378Z,94911.55
2018-04-16T14:26:07.284Z,94918.35
2018-04-16T14:28:35.890Z,94914.81
2018-04-16T14:31:04.625Z,94909.80
2018-04-16T14:33:33.235Z,94914.52
2018-04-16T14:36:01.883Z,94903.17
2018-04-16T14:38:30.889Z,94917.37
2018-04-16T14:40:59.587Z,94905.19
2018-04-16T14:43:30.177Z,94914.86
2018-04-16T14:45:58.806Z,94912.67
2018-04-16T14:48:27.919Z,94916.41
2018-04-16T14:50:56.333Z,94925.75
2018-04-16T14:53:24.807Z,94922.89
2018-04-16T14:55:53.376Z,94926.21
2018-04-16T14:58:21.783Z,94931.11
2018-04-16T15:00:50.210Z,94932.70
2018-04-16T15:03:18.905Z,94925.50
2018-04-16T15:05:47.309Z,94929.59
2018-04-16T15:08:15.731Z,94940.97
2018-04-16T15:10:44.141Z,94933.83
2018-04-16T15:13:12.748Z,94949.86
2018-04-16T15:15:41.317Z,94958.61
2018-04-16T15:18:09.764Z,94958.98
2018-04-16T15:20:40.106Z,94959.16
2018-04-16T15:23:08.520Z,94959.36
2018-04-16T15:25:36.919Z,94951.02
2018-04-16T15:28:05.350Z,94955.94
2018-04-16T15:30:33.770Z,94953.05
2018-04-16T15:33:02.515Z,94950.95
2018-04-16T15:35:31.199Z,94960.23
2018-04-16T15:38:00.959Z,94952.02
2018-04-16T15:40:29.441Z,94958.94
2018-04-16T15:42:57.867Z,94954.54
2018-04-16T15:45:26.322Z,94958.19
2018-04-16T15:47:55.005Z,94966.45
2018-04-16T15:50:23.428Z,94966.20
2018-04-16T15:52:51.859Z,94967.22
2018-04-16T15:55:21.241Z,94974.50
2018-04-16T15:57:49.688Z,94971.30
2018-04-16T16:00:18.101Z,94973.33
2018-04-16T16:02:46.563Z,94974.97
2018-04-16T16:05:21.951Z,94971.38
2018-04-16T16:07:50.393Z,94973.30
2018-04-16T16:10:19.157Z,94974.73
2018-04-16T16:12:47.598Z,94976.16
2018-04-16T16:15:16.035Z,94969.04
2018-04-16T16:17:45.515Z,94981.13
2018-04-16T16:20:14.006Z,94981.66
2018-04-16T16:22:42.441Z,94981.05
2018-04-16T16:25:10.849Z,94990.12
2018-04-16T16:27:39.283Z,94986.00
2018-04-16T16:30:07.824Z,94981.74
2018-04-16T16:32:36.497Z,94984.95
2018-04-16T16:35:04.925Z,94989.52
2018-04-16T16:37:33.303Z,94981.64
2018-04-16T16:40:01.865Z,94983.70
2018-04-16T16:42:30.251Z,94993.03
2018-04-16T16:44:58.646Z,94990.31
2018-04-16T16:47:27.022Z,95001.82
2018-04-16T16:49:55.401Z,95006.66
2018-04-16T16:52:23.849Z,95005.70
2018-04-16T16:54:52.614Z,95012.27
2018-04-16T16:57:21.088Z,95013.14
2018-04-16T16:59:49.499Z,95018.35
2018-04-16T17:02:19.151Z,95017.53
2018-04-16T17:04:48.211Z,95024.16
2018-04-16T17:07:16.629Z,95026.91
2018-04-16T17:09:45.062Z,95030.13
2018-04-16T17:12:13.468Z,95029.32
2018-04-16T17:14:41.876Z,95038.51
2018-04-16T17:17:10.291Z,95045.95
2018-04-16T17:19:38.742Z,95045.25
2018-04-16T17:22:07.201Z,95034.13
2018-04-16T17:24:35.625Z,95042.13
2018-04-16T17:27:04.035Z,95044.72
2018-04-16T17:29:32.456Z,95054.80
2018-04-16T17:32:00.872Z,95055.58
2018-04-16T17:34:29.291Z,95055.63
2018-04-16T17:36:57.683Z,95059.80
2018-04-16T17:39:26.203Z,95067.57
2018-04-16T17:41:55.574Z,95067.31
2018-04-16T17:44:25.237Z,95072.53
2018-04-16T17:46:53.661Z,95072.65
2018-04-16T17:49:22.067Z,95076.91
2018-04-16T17:51:50.871Z,95077.36
2018-04-16T17:54:23.788Z,95072.13
2018-04-16T17:56:52.284Z,95083.86
2018-04-16T17:59:20.713Z,95085.17
2018-04-16T18:01:49.636Z,95094.59
2018-04-16T18:04:18.144Z,95098.63
2018-04-16T18:06:46.634Z,95105.55
2018-04-16T18:09:15.119Z,95108.77
2018-04-16T18:11:43.632Z,95114.75
2018-04-16T18:14:12.064Z,95117.91
2018-04-16T18:16:40.533Z,95116.80
2018-04-16T18:19:08.968Z,95122.81
2018-04-16T18:21:37.424Z,95131.41
2018-04-16T18:24:05.894Z,95135.97
2018-04-16T18:26:34.544Z,95135.95
2018-04-16T18:29:02.967Z,95140.64
2018-04-16T18:31:31.783Z,95144.73
2018-04-16T18:34:00.515Z,95149.84
2018-04-16T18:36:30.224Z,95152.38
2018-04-16T18:38:58.934Z,95162.95
2018-04-16T18:41:27.480Z,95170.55
2018-04-16T18:43:56.691Z,95172.87
2018-04-16T18:46:27.177Z,95177.80
2018-04-16T18:48:55.676Z,95184.80
2018-04-16T18:51:24.871Z,95183.02
2018-04-16T18:53:53.563Z,95189.91
2018-04-16T18:56:23.505Z,95192.30
2018-04-16T18:58:52.125Z,95203.41
2018-04-16T19:01:20.670Z,95206.02
2018-04-16T19:03:49.202Z,95208.63
2018-04-16T19:06:17.660Z,95212.66
2018-04-16T19:08:46.114Z,95212.75
2018-04-16T19:11:14.563Z,95214.30
2018-04-16T19:13:43.067Z,95213.82
2018-04-16T19:16:11.540Z,95225.73
2018-04-16T19:18:40.240Z,95230.54
2018-04-16T19:21:14.219Z,95233.26
2018-04-16T19:23:43.399Z,95239.83
2018-04-16T19:26:11.804Z,95250.39
2018-04-16T19:28:40.333Z,95249.32
2018-04-16T19:31:08.733Z,95255.98
2018-04-16T19:33:42.694Z,95252.42
2018-04-16T19:36:11.186Z,95260.47
2018-04-16T19:38:39.773Z,95264.45
2018-04-16T19:41:08.489Z,95264.06
2018-04-16T19:43:37.088Z,95270.26
2018-04-16T19:46:05.998Z,95269.11
2018-04-16T19:48:42.765Z,95275.53
2018-04-16T19:51:11.151Z,95273.59
2018-04-16T19:53:39.663Z,95271.75
2018-04-16T19:56:14.034Z,95279.87
2018-04-16T19:58:42.479Z,95281.78
2018-04-16T20:01:11.196Z,95290.27
2018-04-16T20:03:45.262Z,95293.42
2018-04-16T20:06:13.697Z,95297.22
2018-04-16T20:08:42.149Z,95290.68
2018-04-16T20:11:10.557Z,95295.77
2018-04-16T20:13:39.835Z,95295.77
2018-04-16T20:16:08.433Z,95297.73
2018-04-16T20:18:36.835Z,95304.28
2018-04-16T20:21:05.435Z,95304.42
2018-04-16T20:23:33.826Z,95310.27
2018-04-16T20:26:02.335Z,95313.01
2018-04-16T20:28:30.753Z,95315.50
2018-04-16T20:30:59.201Z,95319.15
2018-04-16T20:33:27.609Z,95327.20
2018-04-16T20:35:56.084Z,95325.79
2018-04-16T20:38:24.661Z,95336.47
2018-04-16T20:40:53.084Z,95332.55
2018-04-16T20:43:21.549Z,95339.58
2018-04-16T20:45:49.943Z,95337.39
2018-04-16T20:48:18.366Z,95338.03
2018-04-16T20:50:46.849Z,95340.91
2018-04-16T20:53:15.275Z,95350.13
2018-04-16T20:55:43.689Z,95349.69
2018-04-16T20:58:12.095Z,95354.19
2018-04-16T21:00:40.503Z,95354.04
2018-04-16T21:03:08.943Z,95354.74
2018-04-16T21:05:37.377Z,95361.30
2018-04-16T21:08:06.137Z,95362.74
2018-04-16T21:10:34.508Z,95359.56
2018-04-16T21:13:02.885Z,95362.14
2018-04-16T21:15:34.424Z,95360.86
2018-04-16T21:18:02.834Z,95359.09
2018-04-16T21:20:31.406Z,95366.80
2018-04-16T21:22:59.828Z,95369.75
2018-04-16T21:25:28.336Z,95370.62
2018-04-16T21:27:56.719Z,95379.13
2018-04-16T21:30:25.258Z,95378.20
2018-04-16T21:32:53.689Z,95382.79
2018-04-16T21:35:22.110Z,95384.31
2018-04-16T21:37:50.525Z,95388.02
2018-04-16T21:40:18.943Z,95389.08
2018-04-16T21:42:47.369Z,95385.16
2018-04-16T21:45:15.846Z,95380.97
2018-04-16T21:47:44.248Z,95388.54
2018-04-16T21:50:12.650Z,95390.98
2018-04-16T21:52:41.079Z,95394.28
2018-04-16T21:55:09.582Z,95400.98
2018-04-16T21:57:38.668Z,95395.95
2018-04-16T22:00:07.083Z,95392.95
2018-04-16T22:02:35.472Z,95400.94
2018-04-16T22:05:03.875Z,95392.75
2018-04-16T22:07:32.286Z,95393.35
2018-04-16T22:10:00.731Z,95398.42
2018-04-16T22:12:29.110Z,95398.06
2018-04-16T22:14:57.648Z,95402.28
2018-04-16T22:17:26.068Z,95409.95
2018-04-16T22:19:54.503Z,95413.91
2018-04-16T22:22:22.961Z,95415.69
2018-04-16T22:24:51.369Z,95409.41
2018-04-16T22:27:19.883Z,95415.42
2018-04-16T22:29:48.365Z,95422.55
2018-04-16T22:32:16.774Z,95420.37
2018-04-16T22:34:45.215Z,95417.97
2018-04-16T22:37:13.623Z,95420.67
2018-04-16T22:39:42.071Z,95417.63
2018-04-16T22:42:10.476Z,95412.41
2018-04-16T22:44:38.888Z,95423.19
2018-04-16T22:47:07.304Z,95420.01
2018-04-16T22:49:35.711Z,95424.75
2018-04-16T22:52:04.139Z,95427.91
2018-04-16T22:54:32.513Z,95430.55
2018-04-16T22:57:00.962Z,95435.22
2018-04-16T22:59:29.377Z,95427.53
2018-04-16T23:01:57.875Z,95440.44
2018-04-16T23:04:26.283Z,95437.80
2018-04-16T23:06:54.690Z,95444.20
2018-04-16T23:09:23.126Z,95443.83
2018-04-16T23:11:51.511Z,95440.94
2018-04-16T23:14:20.100Z,95442.73
2018-04-16T23:16:48.487Z,95447.94
2018-04-16T23:19:17.641Z,95450.97
2018-04-16T23:21:46.070Z,95452.33
2018-04-16T23:24:14.440Z,95449.30
2018-04-16T23:26:42.880Z,95452.92
2018-04-16T23:29:11.250Z,95451.73
2018-04-16T23:31:39.637Z,95455.30
2018-04-16T23:34:08.030Z,95453.67
2018-04-16T23:36:36.954Z,95458.83
2018-04-16T23:39:06.674Z,95463.88
2018-04-16T23:41:35.311Z,95468.34
2018-04-16T23:44:03.800Z,95467.98
2018-04-16T23:46:32.171Z,95473.17
2018-04-16T23:49:00.551Z,95473.69
2018-04-16T23:51:28.986Z,95477.23
2018-04-16T23:53:57.376Z,95476.77
2018-04-16T23:56:25.747Z,95475.63
2018-04-16T23:58:54.131Z,95478.87
